createdAt,value
2022-09-03T00:04:44.172Z,101401.03
2022-09-03T00:09:52.079Z,101397.25
2022-09-03T00:15:02.054Z,101395.81
2022-09-03T00:20:11.679Z,101395.28
2022-09-03T00:25:18.747Z,101399.41
2022-09-03T00:30:24.346Z,101399.19
2022-09-03T00:35:31.491Z,101388.63
2022-09-03T00:40:46.250Z,101403.94
2022-09-03T00:46:03.300Z,101400.53
2022-09-03T00:51:12.839Z,101396.03
2022-09-03T00:56:23.055Z,101400.88
2022-09-03T01:01:36.625Z,101394.50
2022-09-03T01:06:47.493Z,101391.53
2022-09-03T01:12:00.515Z,101392.44
2022-09-03T01:17:13.868Z,101393.78
2022-09-03T01:22:38.585Z,101385.16
2022-09-03T01:27:54.308Z,101381.56
2022-09-03T01:33:06.904Z,101383.09
2022-09-03T01:38:24.442Z,101389.75
2022-09-03T01:43:43.375Z,101380.03
2022-09-03T01:48:59.191Z,101386.91
2022-09-03T01:54:42.697Z,101383.00
2022-09-03T01:59:53.909Z,101375.72
2022-09-03T02:05:03.819Z,101378.06
2022-09-03T02:10:09.123Z,101382.28
2022-09-03T02:15:15.388Z,101383.81
2022-09-03T02:20:23.136Z,101380.84
2022-09-03T02:25:34.085Z,101377.69
2022-09-03T02:30:37.111Z,101379.75
2022-09-03T02:35:43.105Z,101376.09
2022-09-03T02:40:46.644Z,101374.28
2022-09-03T02:45:55.006Z,101375.97
2022-09-03T02:50:59.288Z,101377.78
2022-09-03T02:56:02.848Z,101371.03
2022-09-03T03:01:07.553Z,101369.41
2022-09-03T03:06:14.448Z,101365.38
2022-09-03T03:11:18.561Z,101362.56
2022-09-03T03:16:21.560Z,101368.22
2022-09-03T03:21:25.893Z,101362.22
2022-09-03T03:26:29.468Z,101369.94
2022-09-03T03:31:33.171Z,101374.19
2022-09-03T03:36:37.635Z,101371.56
2022-09-03T03:41:40.530Z,101381.63
2022-09-03T03:46:43.546Z,101388.44
2022-09-03T03:51:48.023Z,101385.13
2022-09-03T03:56:55.591Z,101389.44
2022-09-03T04:01:58.819Z,101387.66
2022-09-03T04:07:03.139Z,101396.69
2022-09-03T04:12:08.795Z,101398.00
2022-09-03T04:17:11.749Z,101392.91
2022-09-03T04:22:16.759Z,101387.31
2022-09-03T04:27:19.563Z,101386.59
2022-09-03T04:32:39.748Z,101387.94
2022-09-03T04:37:43.935Z,101385.06
2022-09-03T04:42:46.766Z,101384.78
2022-09-03T04:47:58.106Z,101397.16
2022-09-03T04:53:07.910Z,101391.59
2022-09-03T04:58:11.168Z,101413.22
2022-09-03T05:03:14.005Z,101403.53
2022-09-03T05:08:18.618Z,101406.94
2022-09-03T05:13:21.481Z,101407.41
2022-09-03T05:18:24.497Z,101398.59
2022-09-03T05:23:32.284Z,101400.16
2022-09-03T05:28:40.027Z,101393.34
2022-09-03T05:33:44.496Z,101385.34
2022-09-03T05:38:48.949Z,101389.31
2022-09-03T05:43:56.079Z,101385.03
2022-09-03T05:48:59.954Z,101390.44
2022-09-03T05:54:05.172Z,101391.53
2022-09-03T05:59:10.138Z,101393.25
2022-09-03T06:04:28.887Z,101395.22
2022-09-03T06:09:33.232Z,101399.75
2022-09-03T06:14:36.205Z,101403.94
2022-09-03T06:19:39.187Z,101402.25
2022-09-03T06:24:43.794Z,101390.28
2022-09-03T06:29:46.800Z,101393.03
2022-09-03T06:34:49.630Z,101387.56
2022-09-03T06:39:54.805Z,101395.25
2022-09-03T06:44:57.967Z,101393.88
2022-09-03T06:50:02.099Z,101390.03
2022-09-03T06:55:15.672Z,101392.69
2022-09-03T07:00:21.337Z,101390.75
2022-09-03T07:05:31.342Z,101395.16
2022-09-03T07:10:38.714Z,101390.50
2022-09-03T07:15:42.649Z,101389.63
2022-09-03T07:20:50.628Z,101390.31
2022-09-03T07:26:04.119Z,101390.25
2022-09-03T07:31:16.938Z,101393.72
2022-09-03T07:36:21.989Z,101387.00
2022-09-03T07:41:30.911Z,101395.00
2022-09-03T07:46:46.230Z,101383.44
2022-09-03T07:51:53.167Z,101389.41
2022-09-03T07:57:02.325Z,101390.16
2022-09-03T08:02:07.701Z,101383.84
2022-09-03T08:07:20.638Z,101387.50
2022-09-03T08:12:25.319Z,101390.00
2022-09-03T08:17:28.427Z,101381.56
2022-09-03T08:22:31.683Z,101389.00
2022-09-03T08:27:37.487Z,101392.44
2022-09-03T08:32:40.832Z,101388.03
2022-09-03T08:37:44.128Z,101388.31
2022-09-03T08:43:06.867Z,101384.72
2022-09-03T08:48:15.973Z,101382.09
2022-09-03T08:53:25.076Z,101375.81
2022-09-03T08:58:34.219Z,101383.31
2022-09-03T09:03:49.234Z,101389.81
2022-09-03T09:09:04.575Z,101383.56
2022-09-03T09:14:18.570Z,101386.09
2022-09-03T09:19:38.896Z,101390.47
2022-09-03T09:24:48.505Z,101386.44
2022-09-03T09:29:55.873Z,101369.63
2022-09-03T09:35:01.159Z,101369.63
2022-09-03T09:40:14.808Z,101368.22
2022-09-03T09:45:26.487Z,101358.41
2022-09-03T09:51:06.681Z,101362.28
2022-09-03T09:56:21.369Z,101353.13
2022-09-03T10:01:30.253Z,101348.81
2022-09-03T10:06:54.035Z,101345.34
2022-09-03T10:12:14.601Z,101347.22
2022-09-03T10:17:28.379Z,101337.63
2022-09-03T10:22:57.107Z,101330.59
2022-09-03T10:28:02.175Z,101332.72
2022-09-03T10:33:12.771Z,101346.34
2022-09-03T10:38:23.329Z,101328.19
2022-09-03T10:43:47.715Z,101327.50
2022-09-03T10:49:17.016Z,101326.03
2022-09-03T10:54:37.416Z,101305.13
2022-09-03T10:59:59.722Z,101303.53
2022-09-03T11:05:11.042Z,101306.25
2022-09-03T11:16:33.919Z,101304.84
2022-09-03T11:21:46.143Z,101305.13
2022-09-03T11:27:02.501Z,101308.19
2022-09-03T11:32:57.667Z,101295.94
2022-09-03T11:38:05.189Z,101307.00
2022-09-03T11:48:45.951Z,101276.13
2022-09-03T11:53:59.329Z,101274.00
2022-09-03T11:59:19.658Z,101273.31
2022-09-03T12:04:29.903Z,101264.38
2022-09-03T12:10:06.157Z,101286.22
2022-09-03T12:15:27.691Z,101271.75
2022-09-03T12:20:30.886Z,101266.78
2022-09-03T12:25:36.200Z,101262.88
2022-09-03T12:30:39.743Z,101259.81
2022-09-03T12:35:58.949Z,101259.63
2022-09-03T12:46:33.193Z,101251.88
2022-09-03T12:51:51.114Z,101250.75
2022-09-03T12:57:01.701Z,101255.19
2022-09-03T13:02:07.695Z,101245.75
2022-09-03T13:07:16.924Z,101234.59
2022-09-03T13:12:33.311Z,101231.50
2022-09-03T13:17:56.416Z,101230.53
2022-09-03T13:23:15.613Z,101231.91
2022-09-03T13:28:31.849Z,101224.97
2022-09-03T13:33:39.772Z,101230.25
2022-09-03T13:38:45.627Z,101229.91
2022-09-03T13:43:58.108Z,101234.28
2022-09-03T13:49:27.268Z,101235.25
2022-09-03T13:54:48.565Z,101231.19
2022-09-03T13:59:59.532Z,101229.53
2022-09-03T14:10:22.061Z,101219.53
2022-09-03T14:15:31.682Z,101221.38
2022-09-03T14:20:42.502Z,101216.50
2022-09-03T14:25:54.465Z,101203.06
2022-09-03T14:31:08.323Z,101212.84
2022-09-03T14:36:20.491Z,101204.09
2022-09-03T14:41:44.833Z,101212.56
2022-09-03T14:47:02.494Z,101205.59
2022-09-03T14:52:24.317Z,101212.47
2022-09-03T14:57:50.496Z,101214.44
2022-09-03T15:03:28.437Z,101203.75
2022-09-03T15:08:46.452Z,101197.94
2022-09-03T15:13:53.841Z,101205.03
2022-09-03T15:19:17.285Z,101204.53
2022-09-03T15:24:28.790Z,101202.50
2022-09-03T15:29:47.356Z,101197.06
2022-09-03T15:35:05.699Z,101205.88
2022-09-03T15:40:18.675Z,101208.13
2022-09-03T15:45:32.938Z,101218.50
2022-09-03T15:50:50.116Z,101215.66
2022-09-03T15:56:10.472Z,101204.28
2022-09-03T16:01:27.016Z,101210.00
2022-09-03T16:06:38.341Z,101211.94
2022-09-03T16:11:53.306Z,101209.28
2022-09-03T16:17:03.844Z,101206.47
2022-09-03T16:22:15.223Z,101215.84
2022-09-03T16:27:23.887Z,101215.19
2022-09-03T16:32:37.116Z,101221.56
2022-09-03T16:37:50.912Z,101213.81
2022-09-03T16:43:07.312Z,101218.63
2022-09-03T16:48:27.475Z,101216.63
2022-09-03T16:53:52.232Z,101221.44
2022-09-03T16:59:02.846Z,101219.53
2022-09-03T17:04:35.459Z,101225.91
2022-09-03T17:09:56.159Z,101223.09
2022-09-03T17:15:14.644Z,101224.94
2022-09-03T17:20:21.399Z,101218.16
2022-09-03T17:25:34.793Z,101223.22
2022-09-03T17:30:45.081Z,101220.38
2022-09-03T17:35:55.994Z,101224.91
2022-09-03T17:41:12.895Z,101238.47
2022-09-03T17:46:29.909Z,101243.16
2022-09-03T17:51:42.451Z,101255.97
2022-09-03T17:56:55.815Z,101261.91
2022-09-03T18:02:04.945Z,101268.28
2022-09-03T18:07:16.899Z,101274.41
2022-09-03T18:12:33.520Z,101274.97
2022-09-03T18:17:42.532Z,101295.34
2022-09-03T18:23:09.161Z,101291.63
2022-09-03T18:28:34.135Z,101302.59
2022-09-03T18:33:55.841Z,101305.94
2022-09-03T18:39:21.454Z,101316.91
2022-09-03T18:45:12.373Z,101325.38
2022-09-03T18:50:40.111Z,101330.44
2022-09-03T18:56:14.407Z,101332.81
2022-09-03T19:01:45.539Z,101339.84
2022-09-03T19:07:17.407Z,101334.22
2022-09-03T19:12:59.314Z,101341.88
2022-09-03T19:18:46.414Z,101344.81
2022-09-03T19:24:07.061Z,101344.34
2022-09-03T19:29:43.394Z,101350.38
2022-09-03T19:35:23.917Z,101347.91
2022-09-03T19:40:59.371Z,101341.56
2022-09-03T19:46:26.683Z,101349.56
2022-09-03T19:51:53.462Z,101350.69
2022-09-03T19:57:16.416Z,101361.09
2022-09-03T20:02:36.729Z,101359.78
2022-09-03T20:07:58.539Z,101363.31
2022-09-03T20:13:08.267Z,101365.41
2022-09-03T20:18:18.509Z,101373.28
2022-09-03T20:23:31.534Z,101377.41
2022-09-03T20:28:51.384Z,101375.41
2022-09-03T20:34:05.450Z,101381.44
2022-09-03T20:39:32.474Z,101393.31
2022-09-03T20:44:50.485Z,101385.84
2022-09-03T20:50:03.816Z,101388.31
2022-09-03T20:55:13.666Z,101390.78
2022-09-03T21:00:18.485Z,101402.41
2022-09-03T21:05:28.117Z,101388.56
2022-09-03T21:10:39.115Z,101394.44
2022-09-03T21:15:56.458Z,101401.59
2022-09-03T21:21:09.607Z,101397.47
2022-09-03T21:26:21.389Z,101406.56
2022-09-03T21:31:31.927Z,101402.34
2022-09-03T21:36:44.401Z,101410.56
2022-09-03T21:41:55.675Z,101414.44
2022-09-03T21:47:02.584Z,101419.03
2022-09-03T21:52:09.893Z,101418.88
2022-09-03T21:57:25.894Z,101421.00
2022-09-03T22:02:29.998Z,101424.66
2022-09-03T22:07:44.981Z,101435.84
2022-09-03T22:12:57.429Z,101433.59
2022-09-03T22:18:07.362Z,101425.13
2022-09-03T22:23:17.392Z,101432.16
2022-09-03T22:28:29.374Z,101435.16
2022-09-03T22:33:40.546Z,101425.88
2022-09-03T22:39:16.503Z,101424.94
2022-09-03T22:44:35.216Z,101422.97
2022-09-03T22:49:50.159Z,101432.44
2022-09-03T22:55:05.977Z,101427.88
2022-09-03T23:00:13.905Z,101437.41
2022-09-03T23:05:33.188Z,101435.06
2022-09-03T23:10:56.319Z,101443.44
2022-09-03T23:16:08.748Z,101441.63
2022-09-03T23:21:22.193Z,101436.59
2022-09-03T23:26:33.293Z,101445.06
2022-09-03T23:31:38.186Z,101441.47
2022-09-03T23:42:30.156Z,101445.38
2022-09-03T23:47:45.637Z,101443.56
2022-09-03T23:53:18.250Z,101446.41
2022-09-03T23:58:30.319Z,101443.69
